NWI weather

Public forecast

Using degrees Celsius for public forecast. Weather courtesy of forecast.io.

Current aviation weather report (METAR) for Norwich International Airport

Retrieved 2020/08/10 08:20 UTC (15 minutes ago):

EGSH 100820Z 05008KT CAVOK 23/18 Q1015 NOSIG

Aviation forecast (TAF) for Norwich International Airport

Forecast is more than 12 hours old.

Retrieved 2020/03/31 21:39 UTC (4 months ago):

TAF TAF EGSH 311954Z 3121/0124 33005KT 9999 FEW040